• Join FlightAware (Why Join?)
  • Login
  • US Flag 
02:39PM EDT


 

Airport Tracker/Info


-or-


 

Live Flight TrackerFlight Track Log ✈ UPS1301 ✈ 13-Jun-2013 ✈ KATL - KSDF

Flight Track Log - Related Links

Times and Time Zones

All times are in EDT time to prevent confusion due to time zone crossing. See the UPS1301 flight status page for this flight to view local times or setup timezone preferences in your user account.

Time Position Orientation Groundspeed Altitude Reporting Facility
EDT Latitude Longitude Course Direction KTS MPH feet Rate Location/Type
12:02AM 33.6500 -84.4333 270° West 148 170 2,000  Level Atlanta TRACON
12:02AM 33.6500 -84.4833 270° West 184 212 3,300 1,800 Climbing Atlanta TRACON
12:04AM 33.6833 -84.5500 301° West 237 273 5,700 2,580 Climbing Atlanta TRACON
12:04AM 33.7500 -84.5833 337° Northwest 270 311 8,500 2,700 Climbing Atlanta TRACON
12:06AM 33.8661 -84.5842 360° North 295 339 12,500 2,760 Climbing Atlanta Center
12:07AM 33.9475 -84.5847 360° North 295 339 15,700 3,120 Climbing Atlanta Center
12:08AM 34.0308 -84.5903 357° North 290 334 18,800 2,880 Climbing Atlanta Center
12:09AM 34.1186 -84.5883 North 295 339 21,500 2,460 Climbing Atlanta Center
12:10AM 34.2042 -84.5939 357° North 311 358 23,800 2,400 Climbing Atlanta Center
12:11AM 34.2939 -84.5994 357° North 322 371 26,400 2,460 Climbing Atlanta Center
12:12AM 34.3836 -84.6203 349° North 327 376 28,800 1,800 Climbing Atlanta Center
12:13AM 34.4753 -84.6411 349° North 332 382 30,000 600 Climbing Atlanta Center
12:14AM 34.5753 -84.6669 348° North 350 403 30,000  Level Atlanta Center
12:15AM 34.6900 -84.6956 348° North 368 423 30,000  Level Atlanta Center
12:16AM 34.7942 -84.7217 348° North 373 429 30,000  Level Atlanta Center
12:17AM 34.8983 -84.7478 348° North 373 429 30,000  Level Atlanta Center
12:18AM 35.0006 -84.7742 348° North 373 429 30,000  Level Atlanta Center
12:19AM 35.1067 -84.8003 349° North 378 435 30,000  Level Atlanta Center
12:20AM 35.2089 -84.8267 348° North 378 435 30,000  Level Atlanta Center
12:21AM 35.3131 -84.8506 349° North 378 435 30,000  Level Atlanta Center
12:22AM 35.4128 -84.8772 348° North 373 429 30,000  Level Atlanta Center
12:23AM 35.5169 -84.9036 348° North 373 429 30,000  Level Atlanta Center
12:25AM 35.6997 -84.9547 347° North 374 430 30,000  Level Indianapolis Center
12:26AM 35.7992 -84.9858 346° North 368 423 30,000  Level Indianapolis Center
12:27AM 35.9039 -85.0097 350° North 376 433 30,000  Level Indianapolis Center
12:28AM 36.0117 -85.0339 350° North 373 429 30,000  Level Indianapolis Center
12:29AM 36.1128 -85.0564 350° North 367 422 30,000  Level Indianapolis Center
12:30AM 36.2144 -85.0806 349° North 368 423 30,000  Level Indianapolis Center
12:31AM 36.3147 -85.1039 349° North 367 422 30,000 -60 Level Indianapolis Center
12:32AM 36.4147 -85.1272 349° North 364 419 29,900 -420 Descending Indianapolis Center
12:33AM 36.5117 -85.1500 349° North 358 412 29,200 -960 Descending Indianapolis Center
12:34AM 36.6050 -85.1619 354° North 343 395 28,000 -1,260 Descending Indianapolis Center
12:35AM 36.7019 -85.1436 North 349 402 26,700 -1,380 Descending Indianapolis Center
12:36AM 36.7978 -85.1253 North 349 402 25,300 -1,380 Descending Indianapolis Center
12:37AM 36.8983 -85.1053 North 358 412 23,900 -1,320 Descending Indianapolis Center
12:38AM 36.9989 -85.0847 North 365 420 22,700 -1,080 Descending Indianapolis Center
12:39AM 37.0997 -85.0656 North 367 422 21,800 -900 Descending Indianapolis Center
12:40AM 37.1969 -85.0458 North 355 409 20,900 -1,620 Descending Indianapolis Center
12:41AM 37.3072 -85.0247 North 345 397 18,600 -2,280 Descending Indianapolis Center
12:42AM 37.4011 -85.0056 North 343 395 16,300 -2,220 Descending Indianapolis Center
12:43AM 37.4933 -84.9875 North 337 388 14,100 -1,620 Descending Indianapolis Center
12:44AM 37.5825 -84.9675 10° North 328 377 13,100 -900 Descending Indianapolis Center
12:45AM 37.6639 -84.9700 359° North 306 352 12,400 -1,380 Descending Indianapolis Center
12:46AM 37.7219 -85.0475 313° West 299 344 10,400 -1,380 Descending Indianapolis Center
12:47AM 37.7764 -85.1233 312° West 290 334 9,700 -1,140 Descending Indianapolis Center
12:48AM 37.8089 -85.2050 297° West 262 302 8,200 -1,260 Descending Indianapolis Center
12:49AM 37.8411 -85.2928 295° West 260 299 7,200 -960 Descending Indianapolis Center
12:50AM 37.8672 -85.3647 295° West 228 262 6,300 -1,140 Descending Indianapolis Center
12:51AM 37.8928 -85.4347 295° West 219 252 5,000 -1,140 Descending Indianapolis Center
12:52AM 37.9072 -85.5106 284° West 220 253 4,000 -840 Descending Indianapolis Center
12:53AM 37.8914 -85.5814 254° West 227 261 3,300 -540 Descending Indianapolis Center
12:54AM 37.8881 -85.6439 266° West 125 144 3,000 -180 Descending Indianapolis Center
12:55AM 37.9250 -85.6467 357° North 129 148 3,000  Level Indianapolis Center
12:56AM 37.9625 -85.6542 351° North 133 153 3,000  Level Indianapolis Center
12:57AM 37.9994 -85.6681 343° North 135 155 3,000 -60 Level Indianapolis Center
12:58AM 38.0378 -85.6794 347° North 138 159 2,900 -300 Descending Indianapolis Center
12:59AM 38.0706 -85.6914 344° North 134 154 2,400 -600 Descending Indianapolis Center
01:01AM 38.1701 -85.6721 North  Level FlightAware Approximate
01:02AM 38.1500 -85.7167 North 114 131 800  Level Louisville TRACON
01:04AM 38.1667 -85.7333 208° Southwest  Level FlightAware Approximate